sensor_id;sensor_type;location;lat;lon;timestamp;pressure;altitude;pressure_sealevel;temperature;humidity
8061;BME280;4073;42.626;25.386;2023-01-30T00:02:04;97474.59;;;2.53;100.00
8061;BME280;4073;42.626;25.386;2023-01-30T00:04:29;97470.97;;;2.54;100.00
8061;BME280;4073;42.626;25.386;2023-01-30T00:06:55;97473.22;;;2.50;100.00
8061;BME280;4073;42.626;25.386;2023-01-30T00:09:20;97473.97;;;2.57;100.00
8061;BME280;4073;42.626;25.386;2023-01-30T00:11:45;97472.97;;;2.58;100.00
8061;BME280;4073;42.626;25.386;2023-01-30T00:14:11;97469.19;;;2.48;100.00
8061;BME280;4073;42.626;25.386;2023-01-30T00:16:36;97472.56;;;2.55;100.00
8061;BME280;4073;42.626;25.386;2023-01-30T00:19:02;97473.41;;;2.49;100.00
8061;BME280;4073;42.626;25.386;2023-01-30T00:21:27;97481.13;;;2.50;100.00
8061;BME280;4073;42.626;25.386;2023-01-30T00:23:53;97475.63;;;2.52;100.00
8061;BME280;4073;42.626;25.386;2023-01-30T00:26:18;97474.56;;;2.59;100.00
8061;BME280;4073;42.626;25.386;2023-01-30T00:28:44;97465.84;;;2.59;100.00
8061;BME280;4073;42.626;25.386;2023-01-30T00:31:09;97473.13;;;2.63;100.00
8061;BME280;4073;42.626;25.386;2023-01-30T00:33:36;97463.00;;;2.60;100.00
8061;BME280;4073;42.626;25.386;2023-01-30T00:36:02;97450.00;;;2.59;100.00
8061;BME280;4073;42.626;25.386;2023-01-30T00:38:28;97467.16;;;2.74;100.00
8061;BME280;4073;42.626;25.386;2023-01-30T00:40:53;97468.25;;;2.67;100.00
8061;BME280;4073;42.626;25.386;2023-01-30T00:43:19;97459.78;;;2.58;100.00
8061;BME280;4073;42.626;25.386;2023-01-30T00:46:09;97468.59;;;2.70;100.00
8061;BME280;4073;42.626;25.386;2023-01-30T00:48:55;97463.16;;;2.65;100.00
8061;BME280;4073;42.626;25.386;2023-01-30T00:51:21;97455.47;;;2.64;100.00
8061;BME280;4073;42.626;25.386;2023-01-30T00:53:46;97457.72;;;2.60;100.00
8061;BME280;4073;42.626;25.386;2023-01-30T00:56:11;97458.97;;;2.58;100.00
8061;BME280;4073;42.626;25.386;2023-01-30T00:58:37;97459.16;;;2.56;100.00
8061;BME280;4073;42.626;25.386;2023-01-30T01:01:02;97457.72;;;2.60;100.00
8061;BME280;4073;42.626;25.386;2023-01-30T01:03:28;97454.03;;;2.61;100.00
8061;BME280;4073;42.626;25.386;2023-01-30T01:05:53;97437.19;;;2.62;100.00
8061;BME280;4073;42.626;25.386;2023-01-30T01:08:19;97450.34;;;2.69;100.00
8061;BME280;4073;42.626;25.386;2023-01-30T01:10:46;97452.00;;;2.63;100.00
8061;BME280;4073;42.626;25.386;2023-01-30T01:13:12;97447.91;;;2.67;100.00
8061;BME280;4073;42.626;25.386;2023-01-30T01:15:37;97433.84;;;2.73;100.00
8061;BME280;4073;42.626;25.386;2023-01-30T01:18:02;97436.06;;;2.77;100.00
8061;BME280;4073;42.626;25.386;2023-01-30T01:20:28;97442.59;;;2.74;100.00
8061;BME280;4073;42.626;25.386;2023-01-30T01:22:55;97433.84;;;2.73;100.00
8061;BME280;4073;42.626;25.386;2023-01-30T01:25:22;97436.06;;;2.77;100.00
8061;BME280;4073;42.626;25.386;2023-01-30T01:27:48;97419.50;;;2.63;100.00
8061;BME280;4073;42.626;25.386;2023-01-30T01:30:14;97429.81;;;2.71;100.00
8061;BME280;4073;42.626;25.386;2023-01-30T01:32:39;97421.09;;;2.70;100.00
8061;BME280;4073;42.626;25.386;2023-01-30T01:35:05;97416.88;;;2.63;100.00
8061;BME280;4073;42.626;25.386;2023-01-30T01:37:31;97407.56;;;2.60;100.00
8061;BME280;4073;42.626;25.386;2023-01-30T01:39:56;97412.25;;;2.58;100.00
8061;BME280;4073;42.626;25.386;2023-01-30T01:42:40;97403.63;;;2.45;100.00
8061;BME280;4073;42.626;25.386;2023-01-30T01:48:04;97377.56;;;2.30;100.00
8061;BME280;4073;42.626;25.386;2023-01-30T01:50:39;97387.94;;;2.25;100.00
8061;BME280;4073;42.626;25.386;2023-01-30T01:53:07;97383.50;;;2.26;100.00
8061;BME280;4073;42.626;25.386;2023-01-30T01:55:35;97386.91;;;2.26;100.00
8061;BME280;4073;42.626;25.386;2023-01-30T01:58:10;97394.84;;;2.26;100.00
8061;BME280;4073;42.626;25.386;2023-01-30T02:00:38;97367.69;;;2.19;100.00
8061;BME280;4073;42.626;25.386;2023-01-30T02:03:13;97377.63;;;2.24;100.00
8061;BME280;4073;42.626;25.386;2023-01-30T02:05:42;97372.34;;;2.24;100.00
8061;BME280;4073;42.626;25.386;2023-01-30T02:08:33;97363.03;;;2.21;100.00
8061;BME280;4073;42.626;25.386;2023-01-30T02:11:10;97379.34;;;2.36;100.00
8061;BME280;4073;42.626;25.386;2023-01-30T02:13:38;97367.19;;;2.35;100.00
8061;BME280;4073;42.626;25.386;2023-01-30T02:16:06;97362.06;;;2.40;100.00
8061;BME280;4073;42.626;25.386;2023-01-30T02:18:33;97370.94;;;2.46;100.00
8061;BME280;4073;42.626;25.386;2023-01-30T02:32:51;97355.19;;;2.57;100.00
8061;BME280;4073;42.626;25.386;2023-01-30T02:38:11;97349.78;;;2.52;100.00
8061;BME280;4073;42.626;25.386;2023-01-30T02:46:31;97353.22;;;2.28;100.00
8061;BME280;4073;42.626;25.386;2023-01-30T02:49:04;97349.25;;;2.19;100.00
8061;BME280;4073;42.626;25.386;2023-01-30T02:51:35;97341.94;;;2.21;100.00
8061;BME280;4073;42.626;25.386;2023-01-30T02:54:04;97349.44;;;2.18;100.00
8061;BME280;4073;42.626;25.386;2023-01-30T02:56:45;97355.22;;;2.08;100.00
8061;BME280;4073;42.626;25.386;2023-01-30T02:59:12;97362.09;;;2.09;100.00
8061;BME280;4073;42.626;25.386;2023-01-30T03:12:53;97348.44;;;1.88;100.00
8061;BME280;4073;42.626;25.386;2023-01-30T03:15:42;97346.00;;;1.86;100.00
8061;BME280;4073;42.626;25.386;2023-01-30T03:18:10;97354.31;;;1.90;100.00
8061;BME280;4073;42.626;25.386;2023-01-30T03:20:37;97352.38;;;1.79;100.00
8061;BME280;4073;42.626;25.386;2023-01-30T03:23:03;97352.72;;;1.89;100.00
8061;BME280;4073;42.626;25.386;2023-01-30T03:25:30;97350.84;;;1.96;100.00
8061;BME280;4073;42.626;25.386;2023-01-30T03:27:56;97351.84;;;1.95;100.00
8061;BME280;4073;42.626;25.386;2023-01-30T03:30:24;97363.97;;;2.02;100.00
8061;BME280;4073;42.626;25.386;2023-01-30T03:32:50;97358.47;;;2.04;100.00
8061;BME280;4073;42.626;25.386;2023-01-30T03:35:16;97353.41;;;2.02;100.00
8061;BME280;4073;42.626;25.386;2023-01-30T03:37:43;97347.38;;;1.95;100.00
8061;BME280;4073;42.626;25.386;2023-01-30T03:40:10;97351.19;;;1.99;100.00
8061;BME280;4073;42.626;25.386;2023-01-30T03:42:36;97351.41;;;1.98;100.00
8061;BME280;4073;42.626;25.386;2023-01-30T03:45:02;97352.66;;;1.95;100.00
8061;BME280;4073;42.626;25.386;2023-01-30T03:47:27;97350.16;;;2.00;100.00
8061;BME280;4073;42.626;25.386;2023-01-30T03:49:52;97345.78;;;1.94;100.00
8061;BME280;4073;42.626;25.386;2023-01-30T03:52:18;97356.47;;;1.99;100.00
8061;BME280;4073;42.626;25.386;2023-01-30T03:54:43;97350.63;;;1.97;100.00
8061;BME280;4073;42.626;25.386;2023-01-30T03:57:09;97351.63;;;1.96;100.00
8061;BME280;4073;42.626;25.386;2023-01-30T03:59:34;97346.56;;;1.95;100.00
8061;BME280;4073;42.626;25.386;2023-01-30T04:01:59;97337.81;;;2.01;100.00
8061;BME280;4073;42.626;25.386;2023-01-30T04:04:25;97330.09;;;1.99;100.00
8061;BME280;4073;42.626;25.386;2023-01-30T04:06:50;97334.34;;;2.00;100.00
8061;BME280;4073;42.626;25.386;2023-01-30T04:09:16;97343.28;;;1.99;100.00
8061;BME280;4073;42.626;25.386;2023-01-30T04:11:41;97333.56;;;2.00;100.00
8061;BME280;4073;42.626;25.386;2023-01-30T04:14:07;97328.66;;;2.03;100.00
8061;BME280;4073;42.626;25.386;2023-01-30T04:16:32;97331.91;;;2.05;100.00
8061;BME280;4073;42.626;25.386;2023-01-30T04:18:58;97332.88;;;2.11;100.00
8061;BME280;4073;42.626;25.386;2023-01-30T04:21:23;97328.19;;;2.13;100.00
8061;BME280;4073;42.626;25.386;2023-01-30T04:23:48;97336.91;;;2.13;100.00
8061;BME280;4073;42.626;25.386;2023-01-30T04:26:14;97334.03;;;2.15;100.00
8061;BME280;4073;42.626;25.386;2023-01-30T04:28:39;97333.03;;;2.16;100.00
8061;BME280;4073;42.626;25.386;2023-01-30T04:31:06;97328.78;;;2.15;100.00
8061;BME280;4073;42.626;25.386;2023-01-30T04:33:32;97337.09;;;2.12;100.00
8061;BME280;4073;42.626;25.386;2023-01-30T04:36:02;97335.91;;;2.14;100.00
8061;BME280;4073;42.626;25.386;2023-01-30T04:38:29;97336.31;;;2.11;100.00
8061;BME280;4073;42.626;25.386;2023-01-30T04:40:56;97329.03;;;2.07;100.00
8061;BME280;4073;42.626;25.386;2023-01-30T04:43:23;97316.56;;;1.96;100.00
8061;BME280;4073;42.626;25.386;2023-01-30T04:45:50;97320.88;;;1.90;100.00
8061;BME280;4073;42.626;25.386;2023-01-30T04:48:16;97332.63;;;1.88;100.00
8061;BME280;4073;42.626;25.386;2023-01-30T04:50:43;97334.84;;;1.91;100.00
8061;BME280;4073;42.626;25.386;2023-01-30T04:53:11;97318.16;;;1.97;100.00
8061;BME280;4073;42.626;25.386;2023-01-30T04:55:37;97336.84;;;1.95;100.00
8061;BME280;4073;42.626;25.386;2023-01-30T04:58:02;97319.84;;;1.91;100.00
8061;BME280;4073;42.626;25.386;2023-01-30T05:00:28;97345.00;;;1.87;100.00
8061;BME280;4073;42.626;25.386;2023-01-30T05:02:53;97342.53;;;1.92;100.00
8061;BME280;4073;42.626;25.386;2023-01-30T05:05:21;97343.78;;;1.83;100.00
8061;BME280;4073;42.626;25.386;2023-01-30T05:07:47;97332.41;;;1.89;100.00
8061;BME280;4073;42.626;25.386;2023-01-30T05:10:12;97338.44;;;1.96;100.00
8061;BME280;4073;42.626;25.386;2023-01-30T05:12:38;97338.78;;;2.06;100.00
8061;BME280;4073;42.626;25.386;2023-01-30T05:15:03;97341.59;;;2.11;100.00
8061;BME280;4073;42.626;25.386;2023-01-30T05:17:31;97332.94;;;2.04;100.00
8061;BME280;4073;42.626;25.386;2023-01-30T05:19:56;97334.13;;;2.02;100.00
8061;BME280;4073;42.626;25.386;2023-01-30T05:22:22;97346.25;;;2.09;100.00
8061;BME280;4073;42.626;25.386;2023-01-30T05:24:47;97344.38;;;2.16;100.00
8061;BME280;4073;42.626;25.386;2023-01-30T05:27:13;97345.13;;;2.23;100.00
8061;BME280;4073;42.626;25.386;2023-01-30T05:29:38;97342.50;;;2.23;100.00
8061;BME280;4073;42.626;25.386;2023-01-30T05:32:04;97342.50;;;2.23;100.00
8061;BME280;4073;42.626;25.386;2023-01-30T05:34:29;97347.78;;;2.23;100.00
8061;BME280;4073;42.626;25.386;2023-01-30T05:36:55;97345.31;;;2.28;100.00
8061;BME280;4073;42.626;25.386;2023-01-30T05:39:20;97347.97;;;2.28;100.00
8061;BME280;4073;42.626;25.386;2023-01-30T05:41:46;97356.88;;;2.27;100.00
8061;BME280;4073;42.626;25.386;2023-01-30T05:44:11;97357.97;;;2.20;100.00
8061;BME280;4073;42.626;25.386;2023-01-30T05:46:36;97358.94;;;2.25;100.00
8061;BME280;4073;42.626;25.386;2023-01-30T05:49:02;97349.84;;;2.21;100.00
8061;BME280;4073;42.626;25.386;2023-01-30T05:51:29;97358.50;;;2.28;100.00
8061;BME280;4073;42.626;25.386;2023-01-30T05:53:55;97362.59;;;2.24;100.00
8061;BME280;4073;42.626;25.386;2023-01-30T05:56:20;97351.72;;;2.14;100.00
8061;BME280;4073;42.626;25.386;2023-01-30T05:58:54;97364.72;;;2.09;100.00
8061;BME280;4073;42.626;25.386;2023-01-30T06:01:21;97356.88;;;2.03;100.00
8061;BME280;4073;42.626;25.386;2023-01-30T06:03:47;97349.38;;;2.00;100.00
8061;BME280;4073;42.626;25.386;2023-01-30T06:06:12;97358.53;;;1.97;100.00
8061;BME280;4073;42.626;25.386;2023-01-30T06:08:38;97357.53;;;1.92;100.00
8061;BME280;4073;42.626;25.386;2023-01-30T06:11:08;97358.78;;;1.89;100.00
8061;BME280;4073;42.626;25.386;2023-01-30T06:13:34;97354.31;;;1.90;100.00
8061;BME280;4073;42.626;25.386;2023-01-30T06:15:59;97354.53;;;1.88;100.00
8061;BME280;4073;42.626;25.386;2023-01-30T06:18:25;97358.81;;;1.83;100.00
8061;BME280;4073;42.626;25.386;2023-01-30T06:20:51;97360.63;;;1.82;100.00
8061;BME280;4073;42.626;25.386;2023-01-30T06:23:18;97353.56;;;1.76;100.00
8061;BME280;4073;42.626;25.386;2023-01-30T06:25:48;97361.69;;;1.75;100.00
8061;BME280;4073;42.626;25.386;2023-01-30T06:28:15;97354.44;;;1.70;100.00
8061;BME280;4073;42.626;25.386;2023-01-30T06:30:41;97356.09;;;1.65;100.00
8061;BME280;4073;42.626;25.386;2023-01-30T06:33:08;97357.50;;;1.67;100.00
8061;BME280;4073;42.626;25.386;2023-01-30T06:35:33;97362.16;;;1.65;100.00
8061;BME280;4073;42.626;25.386;2023-01-30T06:37:59;97351.16;;;1.75;100.00
8061;BME280;4073;42.626;25.386;2023-01-30T06:40:24;97356.34;;;1.88;100.00
8061;BME280;4073;42.626;25.386;2023-01-30T06:42:50;97357.50;;;1.98;100.00
8061;BME280;4073;42.626;25.386;2023-01-30T06:45:17;97359.88;;;2.06;100.00
8061;BME280;4073;42.626;25.386;2023-01-30T06:47:50;97342.03;;;2.08;100.00
8061;BME280;4073;42.626;25.386;2023-01-30T06:50:17;97351.31;;;2.11;100.00
8061;BME280;4073;42.626;25.386;2023-01-30T06:52:44;97351.66;;;2.21;100.00
8061;BME280;4073;42.626;25.386;2023-01-30T06:55:12;97343.53;;;2.22;100.00
8061;BME280;4073;42.626;25.386;2023-01-30T06:57:38;97349.19;;;2.26;100.00
8061;BME280;4073;42.626;25.386;2023-01-30T07:00:05;97365.38;;;2.29;100.00
8061;BME280;4073;42.626;25.386;2023-01-30T07:02:32;97360.06;;;2.36;100.00
8061;BME280;4073;42.626;25.386;2023-01-30T07:05:00;97360.38;;;2.46;100.00
8061;BME280;4073;42.626;25.386;2023-01-30T07:07:27;97362.38;;;2.50;100.00
8061;BME280;4073;42.626;25.386;2023-01-30T07:09:53;97354.31;;;2.45;100.00
8061;BME280;4073;42.626;25.386;2023-01-30T07:12:18;97348.31;;;2.32;100.00
8061;BME280;4073;42.626;25.386;2023-01-30T07:14:44;97344.28;;;2.29;100.00
8061;BME280;4073;42.626;25.386;2023-01-30T07:17:10;97337.84;;;2.25;100.00
8061;BME280;4073;42.626;25.386;2023-01-30T07:19:35;97347.88;;;2.35;100.00
8061;BME280;4073;42.626;25.386;2023-01-30T07:22:00;97340.59;;;2.37;100.00
8061;BME280;4073;42.626;25.386;2023-01-30T07:24:26;97339.34;;;2.39;100.00
8061;BME280;4073;42.626;25.386;2023-01-30T07:26:51;97337.31;;;2.41;100.00
8061;BME280;4073;42.626;25.386;2023-01-30T07:29:17;97327.19;;;2.38;100.00
8061;BME280;4073;42.626;25.386;2023-01-30T07:31:42;97326.16;;;2.39;100.00
8061;BME280;4073;42.626;25.386;2023-01-30T07:34:07;97307.88;;;2.38;100.00
8061;BME280;4073;42.626;25.386;2023-01-30T07:36:33;97330.69;;;2.50;100.00
8061;BME280;4073;42.626;25.386;2023-01-30T07:38:59;97333.09;;;2.58;100.00
8061;BME280;4073;42.626;25.386;2023-01-30T07:41:26;97332.63;;;2.61;100.00
8061;BME280;4073;42.626;25.386;2023-01-30T07:43:52;97326.03;;;2.52;100.00
8061;BME280;4073;42.626;25.386;2023-01-30T07:46:17;97333.22;;;2.63;100.00
8061;BME280;4073;42.626;25.386;2023-01-30T07:48:44;97336.47;;;2.65;100.00
8061;BME280;4073;42.626;25.386;2023-01-30T07:51:09;97333.22;;;2.63;100.00
8061;BME280;4073;42.626;25.386;2023-01-30T07:56:19;97321.81;;;2.69;100.00
8061;BME280;4073;42.626;25.386;2023-01-30T07:58:49;97331.63;;;2.81;100.00
8061;BME280;4073;42.626;25.386;2023-01-30T08:01:15;97324.31;;;2.83;100.00
8061;BME280;4073;42.626;25.386;2023-01-30T08:03:41;97317.56;;;2.68;100.00
8061;BME280;4073;42.626;25.386;2023-01-30T08:06:08;97318.88;;;2.78;100.00
8061;BME280;4073;42.626;25.386;2023-01-30T08:08:33;97311.38;;;2.56;100.00
8061;BME280;4073;42.626;25.386;2023-01-30T08:10:58;97308.88;;;2.61;100.00
8061;BME280;4073;42.626;25.386;2023-01-30T08:13:24;97310.94;;;2.78;100.00
8061;BME280;4073;42.626;25.386;2023-01-30T08:15:49;97313.69;;;2.89;100.00
8061;BME280;4073;42.626;25.386;2023-01-30T08:18:15;97319.69;;;2.96;100.00
8061;BME280;4073;42.626;25.386;2023-01-30T08:20:40;97315.97;;;3.04;100.00
8061;BME280;4073;42.626;25.386;2023-01-30T08:23:07;97324.00;;;3.09;100.00
8061;BME280;4073;42.626;25.386;2023-01-30T08:25:33;97319.66;;;3.14;100.00
8061;BME280;4073;42.626;25.386;2023-01-30T08:28:00;97326.06;;;3.25;100.00
8061;BME280;4073;42.626;25.386;2023-01-30T08:30:26;97298.25;;;3.22;100.00
8061;BME280;4073;42.626;25.386;2023-01-30T08:32:52;97314.97;;;3.34;100.00
8061;BME280;4073;42.626;25.386;2023-01-30T08:35:18;97324.88;;;3.39;100.00
8061;BME280;4073;42.626;25.386;2023-01-30T08:37:43;97325.75;;;3.51;100.00
8061;BME280;4073;42.626;25.386;2023-01-30T08:40:09;97315.75;;;3.53;100.00
8061;BME280;4073;42.626;25.386;2023-01-30T08:42:35;97316.13;;;3.56;100.00
8061;BME280;4073;42.626;25.386;2023-01-30T08:45:00;97318.44;;;3.64;100.00
8061;BME280;4073;42.626;25.386;2023-01-30T08:47:26;97319.75;;;3.73;100.00
8061;BME280;4073;42.626;25.386;2023-01-30T08:49:51;97321.84;;;3.83;100.00
8061;BME280;4073;42.626;25.386;2023-01-30T08:52:18;97317.69;;;3.87;100.00
8061;BME280;4073;42.626;25.386;2023-01-30T08:54:43;97316.00;;;3.92;100.00
8061;BME280;4073;42.626;25.386;2023-01-30T08:57:09;97309.00;;;3.98;100.00
8061;BME280;4073;42.626;25.386;2023-01-30T08:59:35;97300.31;;;4.20;100.00
8061;BME280;4073;42.626;25.386;2023-01-30T09:02:00;97291.59;;;4.43;100.00
8061;BME280;4073;42.626;25.386;2023-01-30T09:04:28;97299.06;;;4.69;100.00
8061;BME280;4073;42.626;25.386;2023-01-30T09:06:54;97306.19;;;4.91;100.00
8061;BME280;4073;42.626;25.386;2023-01-30T09:09:19;97294.53;;;4.92;100.00
8061;BME280;4073;42.626;25.386;2023-01-30T09:11:45;97303.25;;;5.04;100.00
8061;BME280;4073;42.626;25.386;2023-01-30T09:14:12;97297.84;;;5.22;100.00
8061;BME280;4073;42.626;25.386;2023-01-30T09:16:38;97299.16;;;5.36;100.00
8061;BME280;4073;42.626;25.386;2023-01-30T09:19:04;97295.78;;;5.53;81.87
8061;BME280;4073;42.626;25.386;2023-01-30T09:21:29;97291.84;;;5.55;79.69
8061;BME280;4073;42.626;25.386;2023-01-30T09:23:56;97290.94;;;5.50;78.04
8061;BME280;4073;42.626;25.386;2023-01-30T09:26:22;97285.16;;;5.53;78.68
8061;BME280;4073;42.626;25.386;2023-01-30T09:28:48;97286.50;;;5.67;77.96
8061;BME280;4073;42.626;25.386;2023-01-30T09:31:13;97271.75;;;5.87;76.44
8061;BME280;4073;42.626;25.386;2023-01-30T09:33:38;97280.72;;;5.98;74.75
8061;BME280;4073;42.626;25.386;2023-01-30T09:36:04;97274.09;;;6.00;74.54
8061;BME280;4073;42.626;25.386;2023-01-30T09:38:30;97268.50;;;6.13;74.97
8061;BME280;4073;42.626;25.386;2023-01-30T09:41:12;97269.13;;;6.20;74.12
8061;BME280;4073;42.626;25.386;2023-01-30T09:54:50;97239.94;;;6.20;71.40
8061;BME280;4073;42.626;25.386;2023-01-30T09:57:22;97237.44;;;6.30;73.07
8061;BME280;4073;42.626;25.386;2023-01-30T10:00:03;97237.41;;;6.47;70.38
8061;BME280;4073;42.626;25.386;2023-01-30T10:23:29;97189.66;;;7.96;63.30
8061;BME280;4073;42.626;25.386;2023-01-30T10:28:37;97188.03;;;7.63;65.13
8061;BME280;4073;42.626;25.386;2023-01-30T10:31:11;97185.50;;;7.20;64.10
8061;BME280;4073;42.626;25.386;2023-01-30T10:34:02;97177.28;;;6.79;64.75
8061;BME280;4073;42.626;25.386;2023-01-30T10:36:38;97171.47;;;6.60;63.19
8061;BME280;4073;42.626;25.386;2023-01-30T10:39:45;97166.88;;;6.34;64.81
8061;BME280;4073;42.626;25.386;2023-01-30T10:42:20;97158.69;;;6.19;65.84
8061;BME280;4073;42.626;25.386;2023-01-30T10:44:48;97155.72;;;6.16;66.13
8061;BME280;4073;42.626;25.386;2023-01-30T10:47:28;97147.50;;;6.17;65.53
8061;BME280;4073;42.626;25.386;2023-01-30T10:50:04;97141.13;;;6.35;65.30
8061;BME280;4073;42.626;25.386;2023-01-30T10:55:14;97144.94;;;6.44;62.33
8061;BME280;4073;42.626;25.386;2023-01-30T10:57:52;97130.56;;;6.40;64.22
8061;BME280;4073;42.626;25.386;2023-01-30T11:03:45;97119.44;;;6.86;61.66
8061;BME280;4073;42.626;25.386;2023-01-30T11:06:15;97113.88;;;7.14;62.37
8061;BME280;4073;42.626;25.386;2023-01-30T11:08:42;97106.50;;;7.21;61.62
8061;BME280;4073;42.626;25.386;2023-01-30T11:14:13;97088.03;;;7.04;59.43
8061;BME280;4073;42.626;25.386;2023-01-30T11:19:09;97077.97;;;7.11;60.58
8061;BME280;4073;42.626;25.386;2023-01-30T11:21:35;97077.84;;;7.28;59.13
8061;BME280;4073;42.626;25.386;2023-01-30T11:24:12;97071.22;;;7.30;59.88
8061;BME280;4073;42.626;25.386;2023-01-30T11:26:38;97078.09;;;7.26;58.99
8061;BME280;4073;42.626;25.386;2023-01-30T11:29:27;97068.78;;;7.24;59.96
8061;BME280;4073;42.626;25.386;2023-01-30T11:31:54;97065.84;;;7.20;58.97
8061;BME280;4073;42.626;25.386;2023-01-30T11:34:21;97060.19;;;7.12;59.75
8061;BME280;4073;42.626;25.386;2023-01-30T11:36:48;97046.69;;;6.92;59.50
8061;BME280;4073;42.626;25.386;2023-01-30T11:42:01;97044.84;;;6.23;60.75
8061;BME280;4073;42.626;25.386;2023-01-30T11:44:34;97038.75;;;6.01;61.65
8061;BME280;4073;42.626;25.386;2023-01-30T11:47:08;97025.50;;;5.84;62.37
8061;BME280;4073;42.626;25.386;2023-01-30T11:49:43;97028.41;;;5.66;63.93
8061;BME280;4073;42.626;25.386;2023-01-30T11:52:11;97024.88;;;5.61;64.27
8061;BME280;4073;42.626;25.386;2023-01-30T11:54:39;97024.97;;;5.49;64.94
8061;BME280;4073;42.626;25.386;2023-01-30T11:57:12;97025.06;;;5.21;65.57
8061;BME280;4073;42.626;25.386;2023-01-30T12:02:25;97007.09;;;4.90;67.16
8061;BME280;4073;42.626;25.386;2023-01-30T12:04:58;97006.97;;;4.85;67.65
8061;BME280;4073;42.626;25.386;2023-01-30T12:07:29;96996.63;;;4.83;67.79
8061;BME280;4073;42.626;25.386;2023-01-30T12:09:57;96998.78;;;4.70;68.01
8061;BME280;4073;42.626;25.386;2023-01-30T12:15:23;96984.91;;;4.63;68.87
8061;BME280;4073;42.626;25.386;2023-01-30T12:20:47;96975.59;;;4.77;69.13
8061;BME280;4073;42.626;25.386;2023-01-30T12:26:17;96978.50;;;4.75;67.88
8061;BME280;4073;42.626;25.386;2023-01-30T12:28:55;96974.19;;;4.86;68.31
8061;BME280;4073;42.626;25.386;2023-01-30T12:31:43;96975.06;;;4.91;67.96
8061;BME280;4073;42.626;25.386;2023-01-30T12:34:10;96976.09;;;4.90;68.27
8061;BME280;4073;42.626;25.386;2023-01-30T12:36:41;96972.06;;;4.88;68.61
8061;BME280;4073;42.626;25.386;2023-01-30T12:47:42;96965.00;;;4.77;68.68
8061;BME280;4073;42.626;25.386;2023-01-30T12:55:25;96961.78;;;4.58;68.56
8061;BME280;4073;42.626;25.386;2023-01-30T12:58:02;96960.97;;;4.58;68.96
8061;BME280;4073;42.626;25.386;2023-01-30T13:09:09;96961.06;;;4.63;69.20
8061;BME280;4073;42.626;25.386;2023-01-30T13:14:33;96953.50;;;4.55;70.36
8061;BME280;4073;42.626;25.386;2023-01-30T13:22:26;96949.41;;;4.47;69.97
8061;BME280;4073;42.626;25.386;2023-01-30T13:28:08;96944.19;;;4.36;69.79
8061;BME280;4073;42.626;25.386;2023-01-30T13:30:38;96945.19;;;4.35;69.81
8061;BME280;4073;42.626;25.386;2023-01-30T13:33:13;96933.41;;;4.26;73.50
8061;BME280;4073;42.626;25.386;2023-01-30T13:35:44;96934.63;;;4.07;78.25
8061;BME280;4073;42.626;25.386;2023-01-30T13:38:19;96933.50;;;4.03;80.21
8061;BME280;4073;42.626;25.386;2023-01-30T13:40:47;96943.84;;;4.04;81.30
8061;BME280;4073;42.626;25.386;2023-01-30T13:43:24;96924.09;;;3.95;82.20
8061;BME280;4073;42.626;25.386;2023-01-30T13:45:53;96924.97;;;3.73;83.24
8061;BME280;4073;42.626;25.386;2023-01-30T13:57:14;96913.78;;;3.31;86.51
8061;BME280;4073;42.626;25.386;2023-01-30T14:02:31;96913.44;;;3.39;87.91
8061;BME280;4073;42.626;25.386;2023-01-30T14:04:57;96906.91;;;3.30;87.76
8061;BME280;4073;42.626;25.386;2023-01-30T14:10:25;96907.72;;;3.19;87.06
8061;BME280;4073;42.626;25.386;2023-01-30T14:12:52;96910.25;;;3.14;87.47
8061;BME280;4073;42.626;25.386;2023-01-30T14:15:26;96903.50;;;3.07;87.98
8061;BME280;4073;42.626;25.386;2023-01-30T14:20:21;96905.31;;;3.06;88.90
8061;BME280;4073;42.626;25.386;2023-01-30T14:22:51;96880.41;;;2.91;89.74
8061;BME280;4073;42.626;25.386;2023-01-30T14:35:47;96887.44;;;2.97;93.12
8061;BME280;4073;42.626;25.386;2023-01-30T14:38:15;96892.13;;;2.95;93.66
8061;BME280;4073;42.626;25.386;2023-01-30T14:41:22;96881.69;;;2.88;95.06
8061;BME280;4073;42.626;25.386;2023-01-30T14:49:04;96885.00;;;2.84;96.24
8061;BME280;4073;42.626;25.386;2023-01-30T14:59:38;96891.88;;;2.61;96.51
8061;BME280;4073;42.626;25.386;2023-01-30T15:07:48;96889.03;;;2.51;96.83
8061;BME280;4073;42.626;25.386;2023-01-30T15:10:47;96889.69;;;2.35;96.92
8061;BME280;4073;42.626;25.386;2023-01-30T15:13:35;96888.56;;;2.43;97.28
8061;BME280;4073;42.626;25.386;2023-01-30T15:16:35;96879.34;;;2.34;97.82
8061;BME280;4073;42.626;25.386;2023-01-30T15:24:47;96886.13;;;2.30;99.79
8061;BME280;4073;42.626;25.386;2023-01-30T15:33:19;96890.56;;;2.29;99.94
8061;BME280;4073;42.626;25.386;2023-01-30T15:35:45;96887.59;;;2.26;99.35
8061;BME280;4073;42.626;25.386;2023-01-30T15:38:28;96889.16;;;2.15;98.60
8061;BME280;4073;42.626;25.386;2023-01-30T15:40:56;96888.94;;;2.17;98.70
8061;BME280;4073;42.626;25.386;2023-01-30T15:46:24;96877.81;;;2.15;99.83
8061;BME280;4073;42.626;25.386;2023-01-30T15:51:28;96862.53;;;2.05;100.00
8061;BME280;4073;42.626;25.386;2023-01-30T15:53:57;96867.72;;;2.12;100.00
8061;BME280;4073;42.626;25.386;2023-01-30T15:56:26;96871.84;;;2.19;100.00
8061;BME280;4073;42.626;25.386;2023-01-30T15:58:53;96876.69;;;2.22;99.67
8061;BME280;4073;42.626;25.386;2023-01-30T16:01:21;96876.00;;;2.27;99.64
8061;BME280;4073;42.626;25.386;2023-01-30T16:03:48;96877.06;;;2.26;99.04
8061;BME280;4073;42.626;25.386;2023-01-30T16:06:32;96868.28;;;2.14;99.46
8061;BME280;4073;42.626;25.386;2023-01-30T16:09:05;96875.19;;;2.26;99.76
8061;BME280;4073;42.626;25.386;2023-01-30T16:11:41;96871.88;;;2.31;98.57
8061;BME280;4073;42.626;25.386;2023-01-30T16:14:18;96868.09;;;2.27;99.18
8061;BME280;4073;42.626;25.386;2023-01-30T16:19:26;96870.50;;;2.28;98.50
8061;BME280;4073;42.626;25.386;2023-01-30T16:22:01;96868.88;;;2.27;98.79
8061;BME280;4073;42.626;25.386;2023-01-30T16:24:30;96883.25;;;2.31;97.34
8061;BME280;4073;42.626;25.386;2023-01-30T16:27:02;96879.91;;;2.24;97.39
8061;BME280;4073;42.626;25.386;2023-01-30T16:29:31;96870.47;;;2.17;98.20
8061;BME280;4073;42.626;25.386;2023-01-30T16:31:58;96872.00;;;2.24;97.93
8061;BME280;4073;42.626;25.386;2023-01-30T16:34:35;96860.88;;;2.22;97.39
8061;BME280;4073;42.626;25.386;2023-01-30T16:37:20;96867.19;;;2.21;97.33
8061;BME280;4073;42.626;25.386;2023-01-30T16:40:12;96865.31;;;2.22;97.81
8061;BME280;4073;42.626;25.386;2023-01-30T16:42:38;96858.34;;;2.16;97.74